.
WxDataArchive / Data Records for 2011-09-01
2011-08-31 September 2011 2011-09-02

Data Records for Thursday, 01 September 2011

Time	Temp	Chill	HIndex	Humid	Dewpt	 Wind 	HiWind	WindDir	Rain 	Barom 
-----	----	-----	------	-----	-----	------	------	-------	-----	----- 
00:00	75.8	75.8	77.3	72	66.1	0	1	315	0.00	29.981 
00:05	76.0	76.0	77.5	72	66.3	0	1	315	0.00	29.981 
00:10	76.0	76.0	77.5	72	66.3	0	0	---	0.00	29.981 
00:15	76.0	76.0	77.5	72	66.3	0	1	315	0.00	29.976 
00:20	76.0	76.0	77.5	72	66.3	0	0	---	0.00	29.976 
00:25	75.8	75.8	77.3	72	66.1	0	0	---	0.00	29.976 
00:30	75.8	75.8	77.3	72	66.1	0	0	---	0.00	29.976 
00:35	75.6	75.6	77.1	72	65.9	0	0	---	0.00	29.976 
00:40	75.4	75.4	76.8	73	66.1	0	0	---	0.00	29.976 
00:45	75.3	75.3	76.7	73	66.0	0	0	---	0.00	29.977 
00:50	75.1	75.1	76.5	73	65.8	0	1	315	0.00	29.977 
00:55	74.9	74.9	74.9	74	66.0	0	0	---	0.00	29.977 
01:00	74.9	74.9	74.9	74	66.0	0	0	---	0.00	29.981 
01:05	74.6	74.6	74.6	74	65.7	0	0	---	0.00	29.981 
01:10	74.4	74.4	74.4	75	65.9	0	0	---	0.00	29.981 
01:15	74.2	74.2	74.2	75	65.8	0	0	---	0.00	29.981 
01:20	74.0	74.0	74.0	76	65.9	0	0	---	0.00	29.981 
01:25	73.9	73.9	73.9	76	65.8	0	0	---	0.00	29.981 
01:30	73.5	73.5	73.5	77	65.8	0	0	---	0.00	29.983 
01:35	73.3	73.3	73.3	78	66.0	0	0	---	0.00	29.983 
01:40	73.2	73.2	73.2	79	66.3	0	0	---	0.00	29.983 
01:45	73.0	73.0	73.0	79	66.1	0	0	---	0.00	29.979 
01:50	72.8	72.8	72.8	79	65.9	0	0	---	0.00	29.979 
01:55	72.7	72.7	72.7	80	66.2	0	0	---	0.00	29.979 
02:00	72.5	72.5	72.5	80	66.0	0	0	---	0.00	29.977 
02:05	72.5	72.5	72.5	80	66.0	0	0	---	0.00	29.977 
02:10	72.3	72.3	72.3	80	65.8	0	0	---	0.00	29.977 
02:15	72.3	72.3	72.3	80	65.8	0	0	---	0.00	29.973 
02:20	72.3	72.3	72.3	81	66.1	0	0	---	0.00	29.973 
02:25	72.3	72.3	72.3	80	65.8	0	0	---	0.00	29.973 
02:30	72.5	72.5	72.5	80	66.0	0	0	---	0.00	29.972 
02:35	72.5	72.5	72.5	80	66.0	0	0	---	0.00	29.972 
02:40	72.5	72.5	72.5	80	66.0	0	0	---	0.00	29.972 
02:45	72.5	72.5	72.5	80	66.0	0	0	---	0.00	29.972 
02:50	72.5	72.5	72.5	79	65.6	0	0	---	0.00	29.972 
02:55	72.7	72.7	72.7	79	65.8	0	0	---	0.00	29.972 
03:00	72.8	72.8	72.8	79	65.9	0	1	315	0.00	29.971 
03:05	73.2	73.2	73.2	78	65.9	0	0	---	0.00	29.971 
03:10	73.3	73.3	73.3	77	65.6	0	0	---	0.00	29.971 
03:15	73.7	73.7	73.7	77	66.0	0	1	315	0.00	29.969 
03:20	73.9	73.9	73.9	76	65.8	0	0	---	0.00	29.969 
03:25	73.9	73.9	73.9	76	65.8	0	1	315	0.00	29.969 
03:30	74.0	74.0	74.0	75	65.6	0	0	---	0.00	29.968 
03:35	74.2	74.2	74.2	75	65.8	0	0	---	0.00	29.968 
03:40	74.2	74.2	74.2	74	65.4	0	0	---	0.00	29.968 
03:45	74.4	74.4	74.4	74	65.6	0	0	---	0.00	29.969 
03:50	74.4	74.4	74.4	73	65.2	0	0	---	0.00	29.969 
03:55	74.6	74.6	74.6	73	65.4	0	0	---	0.00	29.969 
04:00	74.6	74.6	74.6	73	65.4	0	0	---	0.00	29.970 
04:05	74.6	74.6	74.6	73	65.4	0	1	315	0.00	29.970 
04:10	74.7	74.7	74.7	73	65.5	0	1	315	0.00	29.970 
04:15	74.9	74.9	74.9	72	65.2	0	1	315	0.00	29.969 
04:20	75.1	75.1	76.6	72	65.4	0	0	---	0.00	29.969 
04:25	74.9	74.9	74.9	72	65.2	0	1	315	0.00	29.969 
04:30	74.9	74.9	74.9	72	65.2	0	1	315	0.00	29.969 
04:35	74.9	74.9	74.9	72	65.2	0	1	315	0.00	29.969 
04:40	74.7	74.7	74.7	72	65.1	0	1	315	0.00	29.969 
04:45	74.6	74.6	74.6	72	65.0	0	0	---	0.00	29.968 
04:50	74.6	74.6	74.6	73	65.4	0	1	315	0.00	29.968 
04:55	74.4	74.4	74.4	73	65.2	0	1	315	0.00	29.968 
05:00	74.2	74.2	74.2	73	65.0	0	1	315	0.00	29.967 
05:05	74.2	74.2	74.2	73	65.0	0	0	---	0.00	29.967 
05:10	74.2	74.2	74.2	73	65.0	0	2	315	0.00	29.967 
05:15	74.2	74.2	74.2	73	65.0	0	2	225	0.00	29.966 
05:20	74.4	74.4	74.4	73	65.2	0	0	---	0.00	29.966 
05:25	74.4	74.4	74.4	73	65.2	0	1	225	0.00	29.966 
05:30	74.4	74.4	74.4	73	65.2	0	1	225	0.00	29.962 
05:35	74.2	74.2	74.2	73	65.0	0	0	---	0.00	29.962 
05:40	74.2	74.2	74.2	73	65.0	0	1	225	0.00	29.962 
05:45	74.0	74.0	74.0	73	64.8	0	0	---	0.00	29.964 
05:50	74.2	74.2	74.2	73	65.0	0	2	225	0.00	29.964 
05:55	74.2	74.2	74.2	73	65.0	0	1	248	0.00	29.964 
06:00	74.2	74.2	74.2	73	65.0	0	0	---	0.00	29.959 
06:05	74.2	74.2	74.2	73	65.0	0	0	---	0.00	29.959 
06:10	74.2	74.2	74.2	73	65.0	0	1	248	0.00	29.959 
06:15	74.2	74.2	74.2	73	65.0	0	1	248	0.00	29.960 
06:20	74.0	74.0	74.0	73	64.8	0	1	248	0.00	29.960 
06:25	74.0	74.0	74.0	73	64.8	0	1	248	0.00	29.960 
06:30	74.0	74.0	74.0	73	64.8	0	1	248	0.00	29.967 
06:35	74.0	74.0	74.0	73	64.8	0	1	248	0.00	29.967 
06:40	74.0	74.0	74.0	73	64.8	0	1	248	0.00	29.967 
06:45	74.0	74.0	74.0	73	64.8	0	1	248	0.00	29.971 
06:50	74.0	74.0	74.0	73	64.8	0	1	248	0.00	29.971 
06:55	73.9	73.9	73.9	73	64.7	0	2	248	0.00	29.971 
07:00	73.9	73.9	73.9	73	64.7	0	0	---	0.00	29.970 
07:05	73.9	73.9	73.9	73	64.7	0	0	---	0.00	29.970 
07:10	73.7	73.7	73.7	73	64.5	0	1	248	0.00	29.970 
07:15	73.7	73.7	73.7	73	64.5	0	1	248	0.00	29.972 
07:20	73.7	73.7	73.7	74	64.9	0	0	---	0.00	29.972 
07:25	73.7	73.7	73.7	74	64.9	0	0	---	0.00	29.972 
07:30	73.7	73.7	73.7	74	64.9	0	0	---	0.00	29.976 
07:35	73.7	73.7	73.7	74	64.9	0	0	---	0.00	29.976 
07:40	73.9	73.9	73.9	73	64.7	0	0	---	0.00	29.976 
07:45	74.0	74.0	74.0	73	64.8	0	2	225	0.00	29.978 
07:50	74.2	74.2	74.2	73	65.0	0	2	225	0.00	29.978 
07:55	74.6	74.6	74.6	72	65.0	1	3	248	0.00	29.978 
08:00	74.9	74.9	74.9	71	64.8	1	2	248	0.00	29.974 
08:05	75.3	75.3	76.9	71	65.2	0	3	248	0.00	29.974 
08:10	75.8	75.8	77.4	70	65.3	0	2	248	0.00	29.974 
08:15	76.1	76.1	77.8	69	65.2	0	2	248	0.00	29.978 
08:20	76.8	76.8	78.6	68	65.4	0	4	248	0.00	29.978 
08:25	77.4	77.4	79.2	67	65.6	1	4	248	0.00	29.978 
08:30	77.7	77.7	79.6	66	65.4	1	3	248	0.00	29.977 
08:35	78.3	78.3	80.2	65	65.5	1	4	248	0.00	29.977 
08:40	78.6	78.6	80.5	64	65.4	1	3	248	0.00	29.977 
08:45	78.8	78.8	80.7	63	65.1	1	4	248	0.00	29.972 
08:50	79.2	79.2	81.1	62	65.0	1	4	248	0.00	29.972 
08:55	79.2	79.2	81.0	61	64.6	1	4	270	0.00	29.972 
09:00	79.4	79.4	81.2	61	64.8	0	2	292	0.00	29.973 
09:05	79.6	79.6	81.3	60	64.5	2	4	270	0.00	29.973 
09:10	79.6	79.6	81.3	60	64.5	1	4	292	0.00	29.973 
09:15	79.6	79.6	81.3	60	64.5	1	4	22	0.00	29.978 
09:20	79.8	79.8	81.7	61	65.1	1	3	270	0.00	29.978 
09:25	79.8	79.8	81.7	61	65.1	1	3	270	0.00	29.978 
09:30	79.8	79.8	81.6	60	64.7	1	4	270	0.00	29.976 
09:35	79.9	79.9	81.8	61	65.2	1	5	270	0.00	29.976 
09:40	79.9	79.9	81.7	60	64.7	2	5	270	0.00	29.976 
09:45	80.3	80.3	82.3	61	65.6	1	3	270	0.00	29.975 
09:50	80.5	80.5	82.4	60	65.3	2	5	270	0.00	29.975 
09:55	80.7	80.7	82.7	60	65.5	1	4	270	0.00	29.975 
10:00	80.9	80.9	82.8	59	65.2	1	6	270	0.00	29.978 
10:05	81.2	81.2	83.2	59	65.5	1	3	248	0.00	29.978 
10:10	81.4	81.4	83.3	58	65.2	2	5	270	0.00	29.978 
10:15	81.8	81.8	83.8	58	65.6	1	3	270	0.00	29.980 
10:20	82.4	82.4	84.4	57	65.6	2	4	270	0.00	29.980 
10:25	83.0	83.0	85.1	56	65.7	1	4	270	0.00	29.980 
10:30	83.4	83.4	85.4	55	65.5	2	5	270	0.00	29.985 
10:35	83.6	83.6	85.9	56	66.2	1	4	270	0.00	29.985 
10:40	84.0	84.0	86.0	54	65.5	2	5	270	0.00	29.985 
10:45	84.0	84.0	86.3	55	66.1	3	5	270	0.00	29.987 
10:50	84.0	84.0	86.3	55	66.1	2	4	270	0.00	29.987 
10:55	84.3	84.3	86.5	54	65.8	2	5	292	0.00	29.987 
11:00	84.5	84.5	86.7	54	66.0	3	5	270	0.00	29.986 
11:05	84.7	84.7	87.0	54	66.2	2	5	270	0.00	29.986 
11:10	84.9	84.9	87.3	54	66.4	2	5	270	0.00	29.986 
11:15	85.1	85.1	87.4	53	66.0	3	6	270	0.00	29.985 
11:20	85.1	85.1	87.4	53	66.0	3	5	270	0.00	29.985 
11:25	85.7	85.7	88.3	53	66.6	1	3	248	0.00	29.985 
11:30	86.1	86.1	88.9	53	66.9	2	4	315	0.00	29.983 
11:35	86.1	86.1	88.9	53	66.9	3	5	270	0.00	29.983 
11:40	86.3	86.3	88.9	52	66.6	2	4	292	0.00	29.983 
11:45	86.5	86.5	89.3	52	66.7	2	6	270	0.00	29.982 
11:50	86.7	86.7	89.6	52	66.9	2	5	270	0.00	29.982 
11:55	87.4	87.4	90.4	51	67.0	2	5	270	0.00	29.982 
12:00	87.4	87.4	90.4	51	67.0	2	4	270	0.00	29.978 
12:05	87.6	87.6	90.7	51	67.2	2	5	270	0.00	29.978 
12:10	87.6	87.6	90.7	51	67.2	2	4	292	0.00	29.978 
12:15	88.0	88.0	91.8	52	68.1	1	3	292	0.00	29.970 
12:20	88.6	88.6	92.1	50	67.5	2	4	292	0.00	29.970 
12:25	88.2	88.2	91.4	50	67.2	2	4	292	0.00	29.970 
12:30	88.4	88.4	92.1	51	67.9	1	3	315	0.00	29.965 
12:35	89.0	89.0	92.4	49	67.3	2	4	248	0.00	29.965 
12:40	89.5	89.5	93.2	49	67.8	2	4	292	0.00	29.965 
12:45	89.5	89.5	93.2	49	67.8	2	6	315	0.00	29.961 
12:50	89.7	89.7	93.2	48	67.4	2	4	292	0.00	29.961 
12:55	89.7	89.7	93.6	49	68.0	2	4	292	0.00	29.961 
13:00	90.1	90.1	94.8	50	68.9	1	3	292	0.00	29.958 
13:05	90.7	90.7	95.0	48	68.3	1	3	292	0.00	29.958 
13:10	91.2	91.2	95.5	47	68.1	2	4	292	0.00	29.958 
13:15	91.2	91.2	95.9	48	68.7	1	3	292	0.00	29.955 
13:20	91.4	91.4	95.8	47	68.3	1	5	292	0.00	29.955 
13:25	91.6	91.6	96.2	47	68.5	1	3	292	0.00	29.955 
13:30	91.6	91.6	96.2	47	68.5	1	3	270	0.00	29.950 
13:35	92.3	92.3	97.0	46	68.5	1	3	270	0.00	29.950 
13:40	92.5	92.5	96.9	45	68.0	1	5	270	0.00	29.950 
13:45	92.1	92.1	96.2	45	67.7	2	5	292	0.00	29.949 
13:50	92.1	92.1	96.7	46	68.3	2	4	292	0.00	29.949 
13:55	92.1	92.1	96.2	45	67.7	2	5	292	0.00	29.949 
14:00	92.1	92.1	96.7	46	68.3	1	3	292	0.00	29.942 
14:05	92.7	92.7	96.8	44	67.5	1	5	292	0.00	29.942 
14:10	93.2	93.2	97.7	44	68.0	2	4	270	0.00	29.942 
14:15	93.4	93.4	98.6	45	68.8	1	3	270	0.00	29.945 
14:20	93.8	93.8	98.9	44	68.5	1	3	270	0.00	29.945 
14:25	93.8	93.8	98.3	43	67.9	2	4	270	0.00	29.945 
14:30	93.6	93.6	98.5	44	68.4	1	4	0	0.00	29.942 
14:35	93.8	93.8	98.9	44	68.5	1	3	292	0.00	29.942 
14:40	93.8	93.8	98.3	43	67.9	1	5	292	0.00	29.942 
14:45	93.6	93.6	98.0	43	67.7	2	5	270	0.00	29.935 
14:50	93.8	93.8	98.9	44	68.5	1	2	270	0.00	29.935 
14:55	94.3	94.3	100.4	45	69.6	0	3	270	0.00	29.935 
15:00	94.9	94.9	100.5	43	68.8	1	6	270	0.00	29.930 
15:05	95.4	95.4	101.5	43	69.3	1	5	270	0.00	29.930 
15:10	95.4	95.4	100.9	42	68.6	1	3	270	0.00	29.930 
15:15	95.1	95.1	100.9	43	69.0	1	4	292	0.00	29.918 
15:20	94.9	94.9	100.5	43	68.8	1	5	270	0.00	29.918 
15:25	94.9	94.9	100.5	43	68.8	1	5	270	0.00	29.918 
15:30	94.9	94.9	100.5	43	68.8	2	4	270	0.00	29.912 
15:35	94.9	94.9	100.5	43	68.8	1	6	270	0.00	29.912 
15:40	94.7	94.7	100.7	44	69.3	1	4	270	0.00	29.912 
15:45	95.1	95.1	100.9	43	69.0	1	4	270	0.00	29.903 
15:50	95.1	95.1	100.9	43	69.0	1	5	270	0.00	29.903 
15:55	94.9	94.9	101.1	44	69.5	2	5	292	0.00	29.903 
16:00	94.9	94.9	101.1	44	69.5	1	3	292	0.00	29.899 
16:05	94.9	94.9	101.1	44	69.5	1	4	270	0.00	29.899 
16:10	94.9	94.9	101.1	44	69.5	2	6	292	0.00	29.899 
16:15	94.5	94.5	100.9	45	69.8	2	4	292	0.00	29.899 
16:20	94.7	94.7	101.3	45	70.0	1	2	292	0.00	29.899 
16:25	94.7	94.7	100.7	44	69.3	2	4	270	0.00	29.899 
16:30	94.7	94.7	100.7	44	69.3	1	4	315	0.00	29.898 
16:35	94.9	94.9	101.7	45	70.2	1	5	270	0.00	29.898 
16:40	94.9	94.9	101.1	44	69.5	2	6	270	0.00	29.898 
16:45	94.7	94.7	100.7	44	69.3	2	5	315	0.00	29.895 
16:50	94.3	94.3	100.4	45	69.6	3	6	292	0.00	29.895 
16:55	94.3	94.3	100.4	45	69.6	1	5	292	0.00	29.895 
17:00	94.5	94.5	100.3	44	69.2	2	5	292	0.00	29.895 
17:05	94.5	94.5	100.9	45	69.8	0	2	270	0.00	29.895 
17:10	94.7	94.7	100.7	44	69.3	1	4	270	0.00	29.895 
17:15	94.7	94.7	100.7	44	69.3	1	4	270	0.00	29.890 
17:20	94.7	94.7	100.7	44	69.3	1	4	270	0.00	29.890 
17:25	94.7	94.7	100.7	44	69.3	2	6	292	0.00	29.890 
17:30	94.5	94.5	100.3	44	69.2	2	5	270	0.00	29.889 
17:35	94.5	94.5	100.3	44	69.2	1	4	270	0.00	29.889 
17:40	94.5	94.5	100.9	45	69.8	1	3	270	0.00	29.889 
17:45	94.5	94.5	100.9	45	69.8	1	5	270	0.00	29.886 
17:50	94.5	94.5	100.9	45	69.8	2	4	270	0.00	29.886 
17:55	94.5	94.5	100.9	45	69.8	1	3	270	0.00	29.886 
18:00	94.3	94.3	100.4	45	69.6	2	5	292	0.00	29.886 
18:05	94.3	94.3	100.4	45	69.6	1	4	248	0.00	29.886 
18:10	94.3	94.3	100.4	45	69.6	1	4	270	0.00	29.886 
18:15	94.0	94.0	100.4	46	70.0	2	5	292	0.00	29.889 
18:20	93.8	93.8	100.0	46	69.8	1	4	270	0.00	29.889 
18:25	93.8	93.8	100.0	46	69.8	1	4	270	0.00	29.889 
18:30	93.8	93.8	100.0	46	69.8	1	3	315	0.00	29.884 
18:35	93.8	93.8	100.6	47	70.5	1	2	315	0.00	29.884 
18:40	93.6	93.6	100.2	47	70.3	1	4	270	0.00	29.884 
18:45	93.6	93.6	100.2	47	70.3	1	4	270	0.00	29.885 
18:50	93.4	93.4	100.3	48	70.7	1	3	270	0.00	29.885 
18:55	93.2	93.2	100.5	49	71.1	0	1	270	0.00	29.885 
19:00	93.2	93.2	100.5	49	71.1	0	2	270	0.00	29.889 
19:05	92.7	92.7	100.0	50	71.3	1	3	270	0.00	29.889 
19:10	92.5	92.5	100.2	51	71.7	0	2	270	0.00	29.889 
19:15	92.3	92.3	99.7	51	71.5	0	1	270	0.00	29.889 
19:20	92.1	92.1	99.3	51	71.3	1	2	270	0.00	29.889 
19:25	91.8	91.8	99.2	52	71.6	1	2	270	0.00	29.889 
19:30	91.6	91.6	98.8	52	71.4	0	2	270	0.00	29.889 
19:35	91.4	91.4	98.4	52	71.3	1	3	22	0.00	29.889 
19:40	91.2	91.2	98.5	53	71.6	1	4	270	0.00	29.889 
19:45	91.0	91.0	98.1	53	71.4	0	2	270	0.00	29.892 
19:50	91.0	91.0	98.1	53	71.4	0	2	270	0.00	29.892 
19:55	90.5	90.5	97.5	54	71.5	0	1	270	0.00	29.892 
20:00	90.3	90.3	97.1	54	71.4	0	1	270	0.00	29.899 
20:05	90.1	90.1	96.7	54	71.2	0	1	270	0.00	29.899 
20:10	89.9	89.9	96.3	54	71.0	0	1	270	0.00	29.899 
20:15	89.7	89.7	95.9	54	70.8	0	1	270	0.00	29.896 
20:20	89.5	89.5	95.5	54	70.6	0	0	---	0.00	29.896 
20:25	89.0	89.0	94.9	55	70.7	0	0	---	0.00	29.896 
20:30	88.8	88.8	95.0	56	71.0	0	0	---	0.00	29.898 
20:35	88.4	88.4	94.6	57	71.2	0	0	---	0.00	29.898 
20:40	88.0	88.0	93.8	57	70.8	0	0	---	0.00	29.898 
20:45	87.4	87.4	93.0	58	70.8	0	0	---	0.00	29.901 
20:50	87.0	87.0	92.7	59	70.9	0	0	---	0.00	29.901 
20:55	86.7	86.7	92.5	60	71.1	0	0	---	0.00	29.901 
21:00	86.3	86.3	92.1	61	71.2	0	0	---	0.00	29.905 
21:05	85.9	85.9	91.3	61	70.9	0	0	---	0.00	29.905 
21:10	85.5	85.5	90.8	62	71.0	0	0	---	0.00	29.905 
21:15	85.3	85.3	90.8	63	71.2	0	0	---	0.00	29.903 
21:20	84.9	84.9	90.4	64	71.3	0	0	---	0.00	29.903 
21:25	84.5	84.5	89.9	65	71.4	0	0	---	0.00	29.903 
21:30	84.3	84.3	89.5	65	71.2	0	0	---	0.00	29.912 
21:35	84.0	84.0	89.2	66	71.4	0	0	---	0.00	29.912 
21:40	83.8	83.8	88.8	66	71.2	0	0	---	0.00	29.912 
21:45	83.4	83.4	88.4	67	71.3	0	0	---	0.00	29.913 
21:50	83.2	83.2	88.2	68	71.5	0	0	---	0.00	29.913 
21:55	83.0	83.0	88.1	69	71.8	0	0	---	0.00	29.913 
22:00	82.8	82.8	87.7	69	71.6	0	0	---	0.00	29.914 
22:05	82.6	82.6	87.6	70	71.8	0	0	---	0.00	29.914 
22:10	82.6	82.6	87.6	70	71.8	0	0	---	0.00	29.914 
22:15	82.4	82.4	87.4	71	72.0	0	0	---	0.00	29.915 
22:20	82.2	82.2	87.3	72	72.2	0	0	---	0.00	29.915 
22:25	81.8	81.8	86.5	72	71.9	0	0	---	0.00	29.915 
22:30	81.6	81.6	86.3	73	72.1	0	0	---	0.00	29.916 
22:35	81.4	81.4	85.9	73	71.9	0	0	---	0.00	29.916 
22:40	81.1	81.1	85.5	74	72.0	0	0	---	0.00	29.916 
22:45	80.9	80.9	85.5	76	72.6	0	0	---	0.00	29.917 
22:50	80.7	80.7	85.1	76	72.4	0	0	---	0.00	29.917 
22:55	80.3	80.3	84.3	76	72.0	0	0	---	0.00	29.917 
23:00	80.1	80.1	84.0	77	72.2	0	0	---	0.00	29.918 
23:05	79.9	79.9	83.8	78	72.4	0	0	---	0.00	29.918 
23:10	79.6	79.6	83.2	78	72.1	0	0	---	0.00	29.918 
23:15	79.4	79.4	82.9	79	72.3	0	0	---	0.00	29.919 
23:20	79.2	79.2	82.5	79	72.1	0	0	---	0.00	29.919 
23:25	79.2	79.2	82.6	80	72.5	0	0	---	0.00	29.919 
23:30	79.0	79.0	82.2	80	72.3	0	0	---	0.00	29.920 
23:35	78.8	78.8	81.9	81	72.5	0	0	---	0.00	29.920 
23:40	78.6	78.6	81.5	81	72.3	0	0	---	0.00	29.920 
23:45	78.6	78.6	81.5	81	72.3	0	0	---	0.00	29.921 
23:50	78.5	78.5	81.3	81	72.2	0	0	---	0.00	29.921 
23:55	78.5	78.5	81.3	82	72.5	0	0	---	0.00	29.921 

CoCoRaHS
IN-AL-39
A2 Web Hosting
Creative Commons License
GoDaddy
search engine by freefind advanced

loaded 2018-11-18 11:24:55 • last modified 2010-11-18 10:43:29
Privacy PolicyDisclaimer
• wx.awcolley.com is powered by PmWiki v.2002016 •
• all content (unless otherwise noted) © 2018 A W Colley